sensor_id;sensor_type;location;lat;lon;timestamp;pressure;altitude;pressure_sealevel;temperature;humidity
6530;BME280;3298;42.688;23.366;2023-01-29T00:01:26;51831.72;;;-145.06;81.99
6530;BME280;3298;42.688;23.366;2023-01-29T00:03:56;51839.91;;;-145.06;81.14
6530;BME280;3298;42.688;23.366;2023-01-29T00:06:23;51848.09;;;-145.06;82.06
6530;BME280;3298;42.688;23.366;2023-01-29T00:08:49;51831.72;;;-145.06;81.45
6530;BME280;3298;42.688;23.366;2023-01-29T00:11:16;51876.75;;;-145.06;81.87
6530;BME280;3298;42.688;23.366;2023-01-29T00:13:44;51850.13;;;-145.06;81.69
6530;BME280;3298;42.688;23.366;2023-01-29T00:16:11;51860.38;;;-145.06;81.56
6530;BME280;3298;42.688;23.366;2023-01-29T00:18:39;51844.00;;;-145.06;82.36
6530;BME280;3298;42.688;23.366;2023-01-29T00:21:09;51837.84;;;-145.06;82.19
6530;BME280;3298;42.688;23.366;2023-01-29T00:23:36;51850.13;;;-145.06;81.70
6530;BME280;3298;42.688;23.366;2023-01-29T00:26:03;51844.00;;;-145.06;81.82
6530;BME280;3298;42.688;23.366;2023-01-29T00:28:30;51837.84;;;-145.06;82.36
6530;BME280;3298;42.688;23.366;2023-01-29T00:30:57;51831.72;;;-145.06;82.52
6530;BME280;3298;42.688;23.366;2023-01-29T00:33:24;51852.19;;;-145.06;81.59
6530;BME280;3298;42.688;23.366;2023-01-29T00:35:50;51901.28;;;-145.06;81.74
6530;BME280;3298;42.688;23.366;2023-01-29T00:38:19;51860.38;;;-145.06;81.66
6530;BME280;3298;42.688;23.366;2023-01-29T00:40:45;51854.22;;;-145.06;82.35
6530;BME280;3298;42.688;23.366;2023-01-29T00:43:29;51852.19;;;-145.06;82.01
6530;BME280;3298;42.688;23.366;2023-01-29T00:46:13;51858.31;;;-145.06;83.56
6530;BME280;3298;42.688;23.366;2023-01-29T00:48:40;51852.19;;;-145.06;83.39
6530;BME280;3298;42.688;23.366;2023-01-29T00:51:07;51864.47;;;-145.06;83.84
6530;BME280;3298;42.688;23.366;2023-01-29T00:53:35;51858.31;;;-145.06;83.50
6530;BME280;3298;42.688;23.366;2023-01-29T00:56:02;51848.09;;;-145.06;83.34
6530;BME280;3298;42.688;23.366;2023-01-29T00:58:28;51852.19;;;-145.06;84.29
6530;BME280;3298;42.688;23.366;2023-01-29T01:00:59;51852.19;;;-145.06;83.31
6530;BME280;3298;42.688;23.366;2023-01-29T01:03:27;51866.50;;;-145.06;84.72
6530;BME280;3298;42.688;23.366;2023-01-29T01:06:03;51852.19;;;-145.06;82.80
6530;BME280;3298;42.688;23.366;2023-01-29T01:08:30;51848.09;;;-145.06;82.14
6530;BME280;3298;42.688;23.366;2023-01-29T01:11:16;51876.75;;;-145.06;82.50
6530;BME280;3298;42.688;23.366;2023-01-29T01:13:43;51848.09;;;-145.06;82.50
6530;BME280;3298;42.688;23.366;2023-01-29T01:16:10;51846.03;;;-145.06;82.74
6530;BME280;3298;42.688;23.366;2023-01-29T01:18:38;51862.41;;;-145.06;82.25
6530;BME280;3298;42.688;23.366;2023-01-29T01:21:05;51850.13;;;-145.06;83.76
6530;BME280;3298;42.688;23.366;2023-01-29T01:23:32;51886.97;;;-145.06;83.98
6530;BME280;3298;42.688;23.366;2023-01-29T01:25:59;51831.72;;;-145.06;83.73
6530;BME280;3298;42.688;23.366;2023-01-29T01:28:27;51891.06;;;-145.06;84.57
6530;BME280;3298;42.688;23.366;2023-01-29T01:30:54;51876.75;;;-145.06;85.63
6530;BME280;3298;42.688;23.366;2023-01-29T01:33:21;51895.16;;;-145.06;84.29
6530;BME280;3298;42.688;23.366;2023-01-29T01:35:48;51833.75;;;-145.06;85.15
6530;BME280;3298;42.688;23.366;2023-01-29T01:38:15;51839.91;;;-145.06;85.90
6530;BME280;3298;42.688;23.366;2023-01-29T01:40:44;51850.13;;;-145.06;86.55
6530;BME280;3298;42.688;23.366;2023-01-29T01:43:11;51878.78;;;-145.06;88.15
6530;BME280;3298;42.688;23.366;2023-01-29T01:45:40;51893.09;;;-145.06;87.51
6530;BME280;3298;42.688;23.366;2023-01-29T01:48:11;51878.78;;;-145.06;87.70
6530;BME280;3298;42.688;23.366;2023-01-29T01:50:44;51876.75;;;-145.06;88.20
6530;BME280;3298;42.688;23.366;2023-01-29T01:53:14;51868.56;;;-145.06;87.60
6530;BME280;3298;42.688;23.366;2023-01-29T01:55:45;51844.00;;;-145.06;87.88
6530;BME280;3298;42.688;23.366;2023-01-29T01:58:18;51880.81;;;-145.06;89.98
6530;BME280;3298;42.688;23.366;2023-01-29T02:00:47;51872.66;;;-145.06;89.81
6530;BME280;3298;42.688;23.366;2023-01-29T02:03:14;51858.31;;;-145.06;90.07
6530;BME280;3298;42.688;23.366;2023-01-29T02:06:00;51876.75;;;-145.06;89.80
6530;BME280;3298;42.688;23.366;2023-01-29T02:08:51;51901.28;;;-145.06;88.17
6530;BME280;3298;42.688;23.366;2023-01-29T02:11:37;51864.47;;;-145.06;88.05
6530;BME280;3298;42.688;23.366;2023-01-29T02:14:04;51846.03;;;-145.06;89.21
6530;BME280;3298;42.688;23.366;2023-01-29T02:16:34;51868.56;;;-145.06;89.75
6530;BME280;3298;42.688;23.366;2023-01-29T02:19:01;51872.66;;;-145.06;88.81
6530;BME280;3298;42.688;23.366;2023-01-29T02:21:46;51864.47;;;-145.06;90.43
6530;BME280;3298;42.688;23.366;2023-01-29T02:24:48;51872.66;;;-145.06;90.42
6530;BME280;3298;42.688;23.366;2023-01-29T02:27:19;51866.50;;;-145.06;90.66
6530;BME280;3298;42.688;23.366;2023-01-29T02:29:55;51905.38;;;-145.06;90.91
6530;BME280;3298;42.688;23.366;2023-01-29T02:32:30;51864.47;;;-145.06;89.27
6530;BME280;3298;42.688;23.366;2023-01-29T02:35:09;51878.78;;;-145.06;89.61
6530;BME280;3298;42.688;23.366;2023-01-29T02:37:56;51872.66;;;-145.06;90.44
6530;BME280;3298;42.688;23.366;2023-01-29T02:40:28;51880.81;;;-145.06;90.41
6530;BME280;3298;42.688;23.366;2023-01-29T02:43:03;51864.47;;;-145.06;89.56
6530;BME280;3298;42.688;23.366;2023-01-29T02:45:39;51860.38;;;-145.06;89.73
6530;BME280;3298;42.688;23.366;2023-01-29T02:48:10;51886.97;;;-145.06;90.42
6530;BME280;3298;42.688;23.366;2023-01-29T02:50:42;51932.00;;;-145.06;90.03
6530;BME280;3298;42.688;23.366;2023-01-29T02:53:14;51893.09;;;-145.06;91.66
6530;BME280;3298;42.688;23.366;2023-01-29T02:55:44;51880.81;;;-145.06;92.56
6530;BME280;3298;42.688;23.366;2023-01-29T02:58:17;51880.81;;;-145.06;92.30
6530;BME280;3298;42.688;23.366;2023-01-29T03:00:48;51891.06;;;-145.06;93.45
6530;BME280;3298;42.688;23.366;2023-01-29T03:03:17;51917.66;;;-145.06;94.13
6530;BME280;3298;42.688;23.366;2023-01-29T03:05:52;51915.63;;;-145.06;93.79
6530;BME280;3298;42.688;23.366;2023-01-29T03:08:27;51919.72;;;-145.06;94.89
6530;BME280;3298;42.688;23.366;2023-01-29T03:11:10;51886.97;;;-145.06;95.23
6530;BME280;3298;42.688;23.366;2023-01-29T03:13:42;51882.88;;;-145.06;93.03
6530;BME280;3298;42.688;23.366;2023-01-29T03:16:20;51921.75;;;-145.06;92.90
6530;BME280;3298;42.688;23.366;2023-01-29T03:18:52;51911.53;;;-145.06;93.32
6530;BME280;3298;42.688;23.366;2023-01-29T03:21:24;51872.66;;;-145.06;92.61
6530;BME280;3298;42.688;23.366;2023-01-29T03:24:14;51899.25;;;-145.06;93.39
6530;BME280;3298;42.688;23.366;2023-01-29T03:27:02;51905.38;;;-145.06;93.21
6530;BME280;3298;42.688;23.366;2023-01-29T03:29:50;51864.47;;;-145.06;93.48
6530;BME280;3298;42.688;23.366;2023-01-29T03:32:37;51913.56;;;-145.06;93.63
6530;BME280;3298;42.688;23.366;2023-01-29T03:35:07;51899.25;;;-145.06;93.11
6530;BME280;3298;42.688;23.366;2023-01-29T03:37:39;51901.28;;;-145.06;92.00
6530;BME280;3298;42.688;23.366;2023-01-29T03:40:09;51884.91;;;-145.06;90.79
6530;BME280;3298;42.688;23.366;2023-01-29T03:42:45;51864.47;;;-145.06;91.52
6530;BME280;3298;42.688;23.366;2023-01-29T03:45:18;51880.81;;;-145.06;90.82
6530;BME280;3298;42.688;23.366;2023-01-29T03:47:50;51913.56;;;-145.06;92.13
6530;BME280;3298;42.688;23.366;2023-01-29T03:50:30;51901.28;;;-145.06;90.50
6530;BME280;3298;42.688;23.366;2023-01-29T03:53:05;51868.56;;;-145.06;90.16
6530;BME280;3298;42.688;23.366;2023-01-29T03:55:37;51844.00;;;-145.06;90.38
6530;BME280;3298;42.688;23.366;2023-01-29T03:58:15;51913.56;;;-145.06;93.34
6530;BME280;3298;42.688;23.366;2023-01-29T04:00:51;51895.16;;;-145.06;97.02
6530;BME280;3298;42.688;23.366;2023-01-29T04:03:22;51909.47;;;-145.06;95.87
6530;BME280;3298;42.688;23.366;2023-01-29T04:05:54;51905.38;;;-145.06;96.45
6530;BME280;3298;42.688;23.366;2023-01-29T04:08:31;51921.75;;;-145.06;97.57
6530;BME280;3298;42.688;23.366;2023-01-29T04:11:03;51917.66;;;-145.06;98.11
6530;BME280;3298;42.688;23.366;2023-01-29T04:13:33;51909.47;;;-145.06;98.00
6530;BME280;3298;42.688;23.366;2023-01-29T04:16:00;51927.91;;;-145.06;97.23
6530;BME280;3298;42.688;23.366;2023-01-29T04:18:31;51921.75;;;-145.06;96.82
6530;BME280;3298;42.688;23.366;2023-01-29T04:20:59;51917.66;;;-145.06;97.85
6530;BME280;3298;42.688;23.366;2023-01-29T04:23:27;51962.69;;;-145.06;97.40
6530;BME280;3298;42.688;23.366;2023-01-29T04:26:06;51886.97;;;-145.06;97.46
6530;BME280;3298;42.688;23.366;2023-01-29T04:28:48;51909.47;;;-145.06;96.93
6530;BME280;3298;42.688;23.366;2023-01-29T04:31:22;51889.00;;;-145.06;94.81
6530;BME280;3298;42.688;23.366;2023-01-29T04:33:59;51864.47;;;-145.06;94.39
6530;BME280;3298;42.688;23.366;2023-01-29T04:36:36;51901.28;;;-145.06;94.05
6530;BME280;3298;42.688;23.366;2023-01-29T04:39:12;51889.00;;;-145.06;92.73
6530;BME280;3298;42.688;23.366;2023-01-29T04:41:49;51882.88;;;-145.06;92.59
6530;BME280;3298;42.688;23.366;2023-01-29T04:44:22;51913.56;;;-145.06;92.06
6530;BME280;3298;42.688;23.366;2023-01-29T04:46:51;51917.66;;;-145.06;92.41
6530;BME280;3298;42.688;23.366;2023-01-29T04:49:32;51874.69;;;-145.06;92.17
6530;BME280;3298;42.688;23.366;2023-01-29T04:52:05;51870.59;;;-145.06;92.13
6530;BME280;3298;42.688;23.366;2023-01-29T04:54:43;51899.25;;;-145.06;93.88
6530;BME280;3298;42.688;23.366;2023-01-29T04:57:18;51889.00;;;-145.06;91.73
6530;BME280;3298;42.688;23.366;2023-01-29T04:59:50;51905.38;;;-145.06;91.77
6530;BME280;3298;42.688;23.366;2023-01-29T05:02:20;51880.81;;;-145.06;92.44
6530;BME280;3298;42.688;23.366;2023-01-29T05:04:50;51923.81;;;-145.06;92.36
6530;BME280;3298;42.688;23.366;2023-01-29T05:07:20;51893.09;;;-145.06;92.07
6530;BME280;3298;42.688;23.366;2023-01-29T05:09:47;51911.53;;;-145.06;90.68
6530;BME280;3298;42.688;23.366;2023-01-29T05:12:16;51884.91;;;-145.06;90.70
6530;BME280;3298;42.688;23.366;2023-01-29T05:14:44;51901.28;;;-145.06;90.95
6530;BME280;3298;42.688;23.366;2023-01-29T05:17:15;51891.06;;;-145.06;90.24
6530;BME280;3298;42.688;23.366;2023-01-29T05:19:43;51891.06;;;-145.06;90.56
6530;BME280;3298;42.688;23.366;2023-01-29T05:22:15;51886.97;;;-145.06;91.41
6530;BME280;3298;42.688;23.366;2023-01-29T05:24:43;51893.09;;;-145.06;89.90
6530;BME280;3298;42.688;23.366;2023-01-29T05:27:15;51880.81;;;-145.06;90.67
6530;BME280;3298;42.688;23.366;2023-01-29T05:30:00;51880.81;;;-145.06;90.01
6530;BME280;3298;42.688;23.366;2023-01-29T05:32:27;51876.75;;;-145.06;89.92
6530;BME280;3298;42.688;23.366;2023-01-29T05:34:53;51915.63;;;-145.06;89.04
6530;BME280;3298;42.688;23.366;2023-01-29T05:37:21;51917.66;;;-145.06;89.24
6530;BME280;3298;42.688;23.366;2023-01-29T05:39:48;51884.91;;;-145.06;88.86
6530;BME280;3298;42.688;23.366;2023-01-29T05:42:15;51886.97;;;-145.06;89.10
6530;BME280;3298;42.688;23.366;2023-01-29T05:44:42;51864.47;;;-145.06;88.97
6530;BME280;3298;42.688;23.366;2023-01-29T05:47:08;51878.78;;;-145.06;89.50
6530;BME280;3298;42.688;23.366;2023-01-29T05:49:35;51884.91;;;-145.06;89.95
6530;BME280;3298;42.688;23.366;2023-01-29T05:52:02;51889.00;;;-145.06;89.82
6530;BME280;3298;42.688;23.366;2023-01-29T05:54:30;51878.78;;;-145.06;90.55
6530;BME280;3298;42.688;23.366;2023-01-29T05:56:57;51905.38;;;-145.06;92.38
6530;BME280;3298;42.688;23.366;2023-01-29T05:59:24;51884.91;;;-145.06;93.87
6530;BME280;3298;42.688;23.366;2023-01-29T06:01:51;51897.19;;;-145.06;92.81
6530;BME280;3298;42.688;23.366;2023-01-29T06:04:17;51868.56;;;-145.06;91.91
6530;BME280;3298;42.688;23.366;2023-01-29T06:06:44;51868.56;;;-145.06;92.56
6530;BME280;3298;42.688;23.366;2023-01-29T06:09:11;51909.47;;;-145.06;91.99
6530;BME280;3298;42.688;23.366;2023-01-29T06:11:39;51891.06;;;-145.06;91.81
6530;BME280;3298;42.688;23.366;2023-01-29T06:14:06;51897.19;;;-145.06;90.91
6530;BME280;3298;42.688;23.366;2023-01-29T06:16:33;51878.78;;;-145.06;93.85
6530;BME280;3298;42.688;23.366;2023-01-29T06:19:00;51993.41;;;-145.06;100.00
6530;BME280;3298;42.688;23.366;2023-01-29T06:21:26;51956.56;;;-145.06;100.00
6530;BME280;3298;42.688;23.366;2023-01-29T06:23:53;51936.09;;;-145.06;97.45
6530;BME280;3298;42.688;23.366;2023-01-29T06:26:20;51923.81;;;-145.06;96.44
6530;BME280;3298;42.688;23.366;2023-01-29T06:28:49;51921.75;;;-145.06;95.62
6530;BME280;3298;42.688;23.366;2023-01-29T06:31:16;51913.56;;;-145.06;95.31
6530;BME280;3298;42.688;23.366;2023-01-29T06:33:43;51895.16;;;-145.06;96.12
6530;BME280;3298;42.688;23.366;2023-01-29T06:36:10;51932.00;;;-145.06;94.52
6530;BME280;3298;42.688;23.366;2023-01-29T06:38:37;51917.66;;;-145.06;93.70
6530;BME280;3298;42.688;23.366;2023-01-29T06:41:08;51917.66;;;-145.06;94.50
6530;BME280;3298;42.688;23.366;2023-01-29T06:43:35;51872.66;;;-145.06;93.53
6530;BME280;3298;42.688;23.366;2023-01-29T06:46:05;51913.56;;;-145.06;94.59
6530;BME280;3298;42.688;23.366;2023-01-29T06:48:33;51874.69;;;-145.06;91.88
6530;BME280;3298;42.688;23.366;2023-01-29T06:51:01;51882.88;;;-145.06;92.82
6530;BME280;3298;42.688;23.366;2023-01-29T06:53:28;51897.19;;;-145.06;93.19
6530;BME280;3298;42.688;23.366;2023-01-29T06:55:54;51923.81;;;-145.06;95.93
6530;BME280;3298;42.688;23.366;2023-01-29T06:58:21;51934.03;;;-145.06;95.46
6530;BME280;3298;42.688;23.366;2023-01-29T07:00:48;51913.56;;;-145.06;95.28
6530;BME280;3298;42.688;23.366;2023-01-29T07:03:16;51917.66;;;-145.06;94.44
6530;BME280;3298;42.688;23.366;2023-01-29T07:05:49;51901.28;;;-145.06;95.08
6530;BME280;3298;42.688;23.366;2023-01-29T07:08:16;51917.66;;;-145.06;93.03
6530;BME280;3298;42.688;23.366;2023-01-29T07:10:42;51909.47;;;-145.06;94.21
6530;BME280;3298;42.688;23.366;2023-01-29T07:13:09;51897.19;;;-145.06;94.13
6530;BME280;3298;42.688;23.366;2023-01-29T07:15:36;51880.81;;;-145.06;93.66
6530;BME280;3298;42.688;23.366;2023-01-29T07:18:03;51880.81;;;-145.06;92.67
6530;BME280;3298;42.688;23.366;2023-01-29T07:20:38;51889.00;;;-145.06;90.73
6530;BME280;3298;42.688;23.366;2023-01-29T07:23:05;51899.25;;;-145.06;90.89
6530;BME280;3298;42.688;23.366;2023-01-29T07:25:33;51911.53;;;-145.06;89.95
6530;BME280;3298;42.688;23.366;2023-01-29T07:28:00;51884.91;;;-145.06;90.97
6530;BME280;3298;42.688;23.366;2023-01-29T07:30:27;51905.38;;;-145.06;90.16
6530;BME280;3298;42.688;23.366;2023-01-29T07:32:54;51929.94;;;-145.06;90.71
6530;BME280;3298;42.688;23.366;2023-01-29T07:35:21;51901.28;;;-145.06;88.02
6530;BME280;3298;42.688;23.366;2023-01-29T07:37:49;51886.97;;;-145.06;86.98
6530;BME280;3298;42.688;23.366;2023-01-29T07:40:16;51886.97;;;-145.06;85.82
6530;BME280;3298;42.688;23.366;2023-01-29T07:42:43;51856.28;;;-145.06;86.53
6530;BME280;3298;42.688;23.366;2023-01-29T07:45:10;51872.66;;;-145.06;88.03
6530;BME280;3298;42.688;23.366;2023-01-29T07:47:37;51891.06;;;-145.06;88.30
6530;BME280;3298;42.688;23.366;2023-01-29T07:50:06;51913.56;;;-145.06;89.64
6530;BME280;3298;42.688;23.366;2023-01-29T07:52:33;51903.34;;;-145.06;90.63
6530;BME280;3298;42.688;23.366;2023-01-29T07:55:01;51915.63;;;-145.06;91.39
6530;BME280;3298;42.688;23.366;2023-01-29T07:57:28;51909.47;;;-145.06;92.45
6530;BME280;3298;42.688;23.366;2023-01-29T07:59:55;51901.28;;;-145.06;90.83
6530;BME280;3298;42.688;23.366;2023-01-29T08:02:22;51889.00;;;-145.06;91.41
6530;BME280;3298;42.688;23.366;2023-01-29T08:04:49;51897.19;;;-145.06;89.20
6530;BME280;3298;42.688;23.366;2023-01-29T08:07:15;51889.00;;;-145.06;89.84
6530;BME280;3298;42.688;23.366;2023-01-29T08:09:42;51897.19;;;-145.06;87.89
6530;BME280;3298;42.688;23.366;2023-01-29T08:12:10;51884.91;;;-145.06;88.94
6530;BME280;3298;42.688;23.366;2023-01-29T08:14:37;51901.28;;;-145.06;87.68
6530;BME280;3298;42.688;23.366;2023-01-29T08:17:04;51862.41;;;-145.06;87.52
6530;BME280;3298;42.688;23.366;2023-01-29T08:19:31;51974.97;;;-145.06;87.21
6530;BME280;3298;42.688;23.366;2023-01-29T08:21:58;51895.16;;;-145.06;85.82
6530;BME280;3298;42.688;23.366;2023-01-29T08:24:24;51866.50;;;-145.06;86.35
6530;BME280;3298;42.688;23.366;2023-01-29T08:26:51;51848.09;;;-145.06;83.71
6530;BME280;3298;42.688;23.366;2023-01-29T08:29:19;51862.41;;;-145.06;84.56
6530;BME280;3298;42.688;23.366;2023-01-29T08:31:46;51868.56;;;-145.06;82.29
6530;BME280;3298;42.688;23.366;2023-01-29T08:34:13;51864.47;;;-145.06;81.48
6530;BME280;3298;42.688;23.366;2023-01-29T08:36:40;51874.69;;;-145.06;81.73
6530;BME280;3298;42.688;23.366;2023-01-29T08:39:07;51848.09;;;-145.06;79.39
6530;BME280;3298;42.688;23.366;2023-01-29T08:41:34;51856.28;;;-145.06;81.06
6530;BME280;3298;42.688;23.366;2023-01-29T08:44:01;51854.22;;;-145.06;81.01
6530;BME280;3298;42.688;23.366;2023-01-29T08:46:30;51831.72;;;-145.06;81.21
6530;BME280;3298;42.688;23.366;2023-01-29T08:48:57;51954.50;;;-145.06;80.93
6530;BME280;3298;42.688;23.366;2023-01-29T08:51:24;51831.72;;;-145.06;80.73
6530;BME280;3298;42.688;23.366;2023-01-29T08:53:51;51844.00;;;-145.06;80.13
6530;BME280;3298;42.688;23.366;2023-01-29T08:56:17;51844.00;;;-145.06;79.97
6530;BME280;3298;42.688;23.366;2023-01-29T08:58:44;51876.75;;;-145.06;80.43
6530;BME280;3298;42.688;23.366;2023-01-29T09:01:12;51839.91;;;-145.06;80.46
6530;BME280;3298;42.688;23.366;2023-01-29T09:03:40;51852.19;;;-145.06;79.97
6530;BME280;3298;42.688;23.366;2023-01-29T09:06:09;51858.31;;;-145.06;79.89
6530;BME280;3298;42.688;23.366;2023-01-29T09:08:37;51860.38;;;-145.06;78.68
6530;BME280;3298;42.688;23.366;2023-01-29T09:11:04;51813.28;;;-145.06;78.35
6530;BME280;3298;42.688;23.366;2023-01-29T09:13:31;51860.38;;;-145.06;77.41
6530;BME280;3298;42.688;23.366;2023-01-29T09:15:59;51827.63;;;-145.06;78.14
6530;BME280;3298;42.688;23.366;2023-01-29T09:18:26;51852.19;;;-145.06;77.44
6530;BME280;3298;42.688;23.366;2023-01-29T09:20:54;51831.72;;;-145.06;76.98
6530;BME280;3298;42.688;23.366;2023-01-29T09:23:22;51876.75;;;-145.06;76.88
6530;BME280;3298;42.688;23.366;2023-01-29T09:25:49;51866.50;;;-145.06;75.98
6530;BME280;3298;42.688;23.366;2023-01-29T09:28:15;51815.34;;;-145.06;76.78
6530;BME280;3298;42.688;23.366;2023-01-29T09:30:43;51839.91;;;-145.06;77.56
6530;BME280;3298;42.688;23.366;2023-01-29T09:33:10;51856.28;;;-145.06;78.60
6530;BME280;3298;42.688;23.366;2023-01-29T09:35:39;51868.56;;;-145.06;77.98
6530;BME280;3298;42.688;23.366;2023-01-29T09:38:08;51850.13;;;-145.06;78.32
6530;BME280;3298;42.688;23.366;2023-01-29T09:40:42;51831.72;;;-145.06;77.80
6530;BME280;3298;42.688;23.366;2023-01-29T09:43:16;51858.31;;;-145.06;76.71
6530;BME280;3298;42.688;23.366;2023-01-29T09:45:50;51835.81;;;-145.06;77.38
6530;BME280;3298;42.688;23.366;2023-01-29T09:48:20;51868.56;;;-145.06;78.11
6530;BME280;3298;42.688;23.366;2023-01-29T09:50:50;51844.00;;;-145.06;77.09
6530;BME280;3298;42.688;23.366;2023-01-29T09:53:26;51835.81;;;-145.06;77.18
6530;BME280;3298;42.688;23.366;2023-01-29T09:56:01;51848.09;;;-145.06;78.03
6530;BME280;3298;42.688;23.366;2023-01-29T09:58:31;51884.91;;;-145.06;77.43
6530;BME280;3298;42.688;23.366;2023-01-29T10:01:07;51837.84;;;-145.06;77.12
6530;BME280;3298;42.688;23.366;2023-01-29T10:06:59;51856.28;;;-145.06;77.31
6530;BME280;3298;42.688;23.366;2023-01-29T10:09:50;51870.59;;;-145.06;77.85
6530;BME280;3298;42.688;23.366;2023-01-29T10:12:38;51846.03;;;-145.06;77.30
6530;BME280;3298;42.688;23.366;2023-01-29T10:15:19;51850.13;;;-145.06;77.12
6530;BME280;3298;42.688;23.366;2023-01-29T10:18:01;51839.91;;;-145.06;77.30
6530;BME280;3298;42.688;23.366;2023-01-29T10:20:42;51848.09;;;-145.06;76.49
6530;BME280;3298;42.688;23.366;2023-01-29T10:23:21;51844.00;;;-145.06;76.38
6530;BME280;3298;42.688;23.366;2023-01-29T10:25:51;51841.94;;;-145.06;76.48
6530;BME280;3298;42.688;23.366;2023-01-29T10:28:22;51856.28;;;-145.06;76.75
6530;BME280;3298;42.688;23.366;2023-01-29T10:30:55;51862.41;;;-145.06;75.44
6530;BME280;3298;42.688;23.366;2023-01-29T10:33:27;51844.00;;;-145.06;76.23
6530;BME280;3298;42.688;23.366;2023-01-29T10:36:00;51823.53;;;-145.06;76.57
6530;BME280;3298;42.688;23.366;2023-01-29T10:38:36;51872.66;;;-145.06;76.75
6530;BME280;3298;42.688;23.366;2023-01-29T10:41:19;51866.50;;;-145.06;78.13
6530;BME280;3298;42.688;23.366;2023-01-29T10:43:58;51864.47;;;-145.06;77.93
6530;BME280;3298;42.688;23.366;2023-01-29T10:46:36;51844.00;;;-145.06;76.01
6530;BME280;3298;42.688;23.366;2023-01-29T10:49:14;51856.28;;;-145.06;76.44
6530;BME280;3298;42.688;23.366;2023-01-29T10:51:55;51835.81;;;-145.06;78.01
6530;BME280;3298;42.688;23.366;2023-01-29T10:54:39;51835.81;;;-145.06;76.18
6530;BME280;3298;42.688;23.366;2023-01-29T10:57:18;51827.63;;;-145.06;76.75
6530;BME280;3298;42.688;23.366;2023-01-29T10:59:58;51831.72;;;-145.06;76.68
6530;BME280;3298;42.688;23.366;2023-01-29T11:02:28;51852.19;;;-145.06;75.94
6530;BME280;3298;42.688;23.366;2023-01-29T11:04:55;51835.81;;;-145.06;75.48
6530;BME280;3298;42.688;23.366;2023-01-29T11:07:22;51844.00;;;-145.06;75.42
6530;BME280;3298;42.688;23.366;2023-01-29T11:09:53;51868.56;;;-145.06;76.49
6530;BME280;3298;42.688;23.366;2023-01-29T11:12:26;51833.75;;;-145.06;75.24
6530;BME280;3298;42.688;23.366;2023-01-29T11:14:58;51831.72;;;-145.06;75.13
6530;BME280;3298;42.688;23.366;2023-01-29T11:17:27;51835.81;;;-145.06;75.24
6530;BME280;3298;42.688;23.366;2023-01-29T11:19:54;51856.28;;;-145.06;75.90
6530;BME280;3298;42.688;23.366;2023-01-29T11:22:23;51819.44;;;-145.06;76.77
6530;BME280;3298;42.688;23.366;2023-01-29T11:25:09;51844.00;;;-145.06;76.22
6530;BME280;3298;42.688;23.366;2023-01-29T11:27:43;51827.63;;;-145.06;77.09
6530;BME280;3298;42.688;23.366;2023-01-29T11:30:18;51854.22;;;-145.06;77.02
6530;BME280;3298;42.688;23.366;2023-01-29T11:32:50;51850.13;;;-145.06;76.47
6530;BME280;3298;42.688;23.366;2023-01-29T11:35:23;51844.00;;;-145.06;76.93
6530;BME280;3298;42.688;23.366;2023-01-29T11:37:50;51848.09;;;-145.06;76.76
6530;BME280;3298;42.688;23.366;2023-01-29T11:40:38;51864.47;;;-145.06;76.82
6530;BME280;3298;42.688;23.366;2023-01-29T11:43:18;51850.13;;;-145.06;75.90
6530;BME280;3298;42.688;23.366;2023-01-29T11:45:46;51833.75;;;-145.06;76.30
6530;BME280;3298;42.688;23.366;2023-01-29T11:48:15;51841.94;;;-145.06;75.91
6530;BME280;3298;42.688;23.366;2023-01-29T11:50:50;51835.81;;;-145.06;76.05
6530;BME280;3298;42.688;23.366;2023-01-29T11:53:24;51858.31;;;-145.06;76.76
6530;BME280;3298;42.688;23.366;2023-01-29T11:55:52;51848.09;;;-145.06;75.34
6530;BME280;3298;42.688;23.366;2023-01-29T11:58:25;51835.81;;;-145.06;75.60
6530;BME280;3298;42.688;23.366;2023-01-29T12:00:54;51846.03;;;-145.06;74.93
6530;BME280;3298;42.688;23.366;2023-01-29T12:03:30;51854.22;;;-145.06;75.22
6530;BME280;3298;42.688;23.366;2023-01-29T12:06:02;51848.09;;;-145.06;75.83
6530;BME280;3298;42.688;23.366;2023-01-29T12:08:34;51833.75;;;-145.06;74.82
6530;BME280;3298;42.688;23.366;2023-01-29T12:11:10;51839.91;;;-145.06;75.76
6530;BME280;3298;42.688;23.366;2023-01-29T12:13:40;51844.00;;;-145.06;74.12
6530;BME280;3298;42.688;23.366;2023-01-29T12:16:16;51841.94;;;-145.06;74.38
6530;BME280;3298;42.688;23.366;2023-01-29T12:18:49;51864.47;;;-145.06;74.20
6530;BME280;3298;42.688;23.366;2023-01-29T12:21:21;51862.41;;;-145.06;73.81
6530;BME280;3298;42.688;23.366;2023-01-29T12:23:56;51848.09;;;-145.06;73.42
6530;BME280;3298;42.688;23.366;2023-01-29T12:26:28;51864.47;;;-145.06;73.01
6530;BME280;3298;42.688;23.366;2023-01-29T12:29:14;51829.66;;;-145.06;72.18
6530;BME280;3298;42.688;23.366;2023-01-29T12:31:50;51819.44;;;-145.06;73.20
6530;BME280;3298;42.688;23.366;2023-01-29T12:34:29;51864.47;;;-145.06;71.87
6530;BME280;3298;42.688;23.366;2023-01-29T12:37:03;51821.47;;;-145.06;71.56
6530;BME280;3298;42.688;23.366;2023-01-29T12:39:35;51833.75;;;-145.06;71.13
6530;BME280;3298;42.688;23.366;2023-01-29T12:42:04;51829.66;;;-145.06;70.24
6530;BME280;3298;42.688;23.366;2023-01-29T12:44:38;51809.19;;;-145.06;70.77
6530;BME280;3298;42.688;23.366;2023-01-29T12:47:12;51827.63;;;-145.06;70.32
6530;BME280;3298;42.688;23.366;2023-01-29T12:49:41;51856.28;;;-145.06;71.52
6530;BME280;3298;42.688;23.366;2023-01-29T12:52:10;51854.22;;;-145.06;71.93
6530;BME280;3298;42.688;23.366;2023-01-29T12:54:41;51839.91;;;-145.06;71.78
6530;BME280;3298;42.688;23.366;2023-01-29T12:57:19;51848.09;;;-145.06;71.50
6530;BME280;3298;42.688;23.366;2023-01-29T12:59:51;51860.38;;;-145.06;71.20
6530;BME280;3298;42.688;23.366;2023-01-29T13:02:30;51833.75;;;-145.06;71.49
6530;BME280;3298;42.688;23.366;2023-01-29T13:05:00;51823.53;;;-145.06;71.90
6530;BME280;3298;42.688;23.366;2023-01-29T13:07:32;51823.53;;;-145.06;72.16
6530;BME280;3298;42.688;23.366;2023-01-29T13:10:06;51827.63;;;-145.06;71.64
6530;BME280;3298;42.688;23.366;2023-01-29T13:12:37;51854.22;;;-145.06;71.68
6530;BME280;3298;42.688;23.366;2023-01-29T13:15:16;51823.53;;;-145.06;71.99